sensor_id;sensor_type;location;lat;lon;timestamp;P1;durP1;ratioP1;P2;durP2;ratioP2
1691;SDS011;843;52.054;8.552;2023-05-21T15:37:40;19.67;;;17.70;;
1691;SDS011;843;52.054;8.552;2023-05-21T15:40:08;21.37;;;18.17;;
1691;SDS011;843;52.054;8.552;2023-05-21T15:42:34;18.80;;;16.83;;
1691;SDS011;843;52.054;8.552;2023-05-21T15:45:01;19.40;;;17.50;;
1691;SDS011;843;52.054;8.552;2023-05-21T15:47:27;18.67;;;16.70;;
1691;SDS011;843;52.054;8.552;2023-05-21T15:49:54;19.03;;;17.23;;
1691;SDS011;843;52.054;8.552;2023-05-21T15:52:20;20.10;;;18.07;;
1691;SDS011;843;52.054;8.552;2023-05-21T15:54:48;18.77;;;16.90;;
1691;SDS011;843;52.054;8.552;2023-05-21T15:57:15;19.30;;;17.50;;
1691;SDS011;843;52.054;8.552;2023-05-21T15:59:41;18.13;;;16.47;;
1691;SDS011;843;52.054;8.552;2023-05-21T16:02:07;16.97;;;15.37;;
1691;SDS011;843;52.054;8.552;2023-05-21T16:04:34;18.90;;;16.90;;
1691;SDS011;843;52.054;8.552;2023-05-21T16:07:01;18.07;;;16.33;;
1691;SDS011;843;52.054;8.552;2023-05-21T16:09:27;22.97;;;20.80;;
1691;SDS011;843;52.054;8.552;2023-05-21T16:11:55;17.10;;;15.30;;
1691;SDS011;843;52.054;8.552;2023-05-21T16:14:22;17.97;;;16.20;;
1691;SDS011;843;52.054;8.552;2023-05-21T16:16:49;18.03;;;16.23;;
1691;SDS011;843;52.054;8.552;2023-05-21T16:19:15;17.57;;;15.97;;
1691;SDS011;843;52.054;8.552;2023-05-21T16:21:42;18.03;;;16.40;;
1691;SDS011;843;52.054;8.552;2023-05-21T16:24:10;17.90;;;16.10;;
1691;SDS011;843;52.054;8.552;2023-05-21T16:26:36;17.40;;;15.23;;
1691;SDS011;843;52.054;8.552;2023-05-21T16:29:04;17.13;;;15.53;;
1691;SDS011;843;52.054;8.552;2023-05-21T16:31:30;18.60;;;16.70;;
1691;SDS011;843;52.054;8.552;2023-05-21T16:33:57;17.07;;;15.40;;
1691;SDS011;843;52.054;8.552;2023-05-21T16:36:23;17.30;;;15.70;;
1691;SDS011;843;52.054;8.552;2023-05-21T16:38:50;15.73;;;14.10;;
1691;SDS011;843;52.054;8.552;2023-05-21T16:41:16;16.60;;;14.90;;
1691;SDS011;843;52.054;8.552;2023-05-21T16:43:43;16.40;;;14.80;;
1691;SDS011;843;52.054;8.552;2023-05-21T16:46:11;17.53;;;15.27;;
1691;SDS011;843;52.054;8.552;2023-05-21T16:48:37;17.10;;;15.40;;
1691;SDS011;843;52.054;8.552;2023-05-21T16:51:05;16.47;;;14.90;;
1691;SDS011;843;52.054;8.552;2023-05-21T16:55:48;16.33;;;14.83;;
1691;SDS011;843;52.054;8.552;2023-05-21T16:58:14;17.13;;;15.53;;
1691;SDS011;843;52.054;8.552;2023-05-21T17:00:41;15.50;;;14.00;;
1691;SDS011;843;52.054;8.552;2023-05-21T17:03:07;15.53;;;14.07;;
1691;SDS011;843;52.054;8.552;2023-05-21T17:05:34;16.57;;;14.87;;
1691;SDS011;843;52.054;8.552;2023-05-21T17:08:00;16.37;;;14.67;;
1691;SDS011;843;52.054;8.552;2023-05-21T17:10:29;14.30;;;13.00;;
1691;SDS011;843;52.054;8.552;2023-05-21T17:13:02;16.00;;;14.37;;
1691;SDS011;843;52.054;8.552;2023-05-21T17:15:29;16.17;;;14.27;;
1691;SDS011;843;52.054;8.552;2023-05-21T17:17:57;14.30;;;13.00;;
1691;SDS011;843;52.054;8.552;2023-05-21T17:20:23;16.20;;;13.97;;
1691;SDS011;843;52.054;8.552;2023-05-21T17:22:50;15.63;;;13.93;;
1691;SDS011;843;52.054;8.552;2023-05-21T17:25:17;15.87;;;14.37;;
1691;SDS011;843;52.054;8.552;2023-05-21T17:27:44;14.70;;;13.30;;
1691;SDS011;843;52.054;8.552;2023-05-21T17:30:12;15.73;;;14.13;;
1691;SDS011;843;52.054;8.552;2023-05-21T17:32:38;15.17;;;13.70;;
1691;SDS011;843;52.054;8.552;2023-05-21T17:35:05;15.80;;;14.20;;
1691;SDS011;843;52.054;8.552;2023-05-21T17:37:32;15.30;;;13.90;;
1691;SDS011;843;52.054;8.552;2023-05-21T17:39:58;15.87;;;14.37;;
1691;SDS011;843;52.054;8.552;2023-05-21T17:42:24;17.67;;;14.13;;
1691;SDS011;843;52.054;8.552;2023-05-21T17:44:51;15.53;;;14.13;;
1691;SDS011;843;52.054;8.552;2023-05-21T17:47:19;15.17;;;13.77;;
1691;SDS011;843;52.054;8.552;2023-05-21T17:49:46;14.83;;;13.43;;
1691;SDS011;843;52.054;8.552;2023-05-21T17:52:12;15.87;;;14.17;;
1691;SDS011;843;52.054;8.552;2023-05-21T17:54:38;15.10;;;13.63;;
1691;SDS011;843;52.054;8.552;2023-05-21T17:57:05;15.70;;;13.80;;
1691;SDS011;843;52.054;8.552;2023-05-21T17:59:31;15.80;;;12.57;;
1691;SDS011;843;52.054;8.552;2023-05-21T18:01:58;16.17;;;14.63;;
1691;SDS011;843;52.054;8.552;2023-05-21T18:04:29;14.70;;;13.00;;
1691;SDS011;843;52.054;8.552;2023-05-21T18:06:55;16.23;;;14.33;;
1691;SDS011;843;52.054;8.552;2023-05-21T18:09:22;14.63;;;13.13;;
1691;SDS011;843;52.054;8.552;2023-05-21T18:11:48;16.40;;;14.63;;
1691;SDS011;843;52.054;8.552;2023-05-21T18:14:15;15.43;;;13.83;;
1691;SDS011;843;52.054;8.552;2023-05-21T18:16:41;14.37;;;12.87;;
1691;SDS011;843;52.054;8.552;2023-05-21T18:19:08;15.00;;;13.53;;
1691;SDS011;843;52.054;8.552;2023-05-21T18:21:36;17.03;;;14.40;;
1691;SDS011;843;52.054;8.552;2023-05-21T18:24:08;15.90;;;13.97;;
1691;SDS011;843;52.054;8.552;2023-05-21T18:26:35;16.17;;;13.90;;
1691;SDS011;843;52.054;8.552;2023-05-21T18:29:05;19.10;;;14.40;;
1691;SDS011;843;52.054;8.552;2023-05-21T18:31:33;17.50;;;15.10;;
1691;SDS011;843;52.054;8.552;2023-05-21T18:33:59;16.40;;;14.70;;
1691;SDS011;843;52.054;8.552;2023-05-21T18:36:26;18.43;;;15.23;;
1691;SDS011;843;52.054;8.552;2023-05-21T18:38:54;15.00;;;13.60;;
1691;SDS011;843;52.054;8.552;2023-05-21T18:41:21;16.33;;;14.73;;
1691;SDS011;843;52.054;8.552;2023-05-21T18:43:48;16.80;;;15.10;;
1691;SDS011;843;52.054;8.552;2023-05-21T18:46:15;17.10;;;14.87;;
1691;SDS011;843;52.054;8.552;2023-05-21T18:48:41;15.70;;;14.10;;
1691;SDS011;843;52.054;8.552;2023-05-21T18:51:08;17.17;;;15.33;;
1691;SDS011;843;52.054;8.552;2023-05-21T18:53:34;15.67;;;13.60;;
1691;SDS011;843;52.054;8.552;2023-05-21T18:56:03;16.10;;;14.40;;
1691;SDS011;843;52.054;8.552;2023-05-21T18:58:31;16.40;;;14.70;;
1691;SDS011;843;52.054;8.552;2023-05-21T19:00:57;16.10;;;14.50;;
1691;SDS011;843;52.054;8.552;2023-05-21T19:03:24;16.70;;;15.00;;
1691;SDS011;843;52.054;8.552;2023-05-21T19:05:51;15.57;;;14.07;;
1691;SDS011;843;52.054;8.552;2023-05-21T19:08:21;16.70;;;15.00;;
1691;SDS011;843;52.054;8.552;2023-05-21T19:10:47;16.57;;;14.30;;
1691;SDS011;843;52.054;8.552;2023-05-21T19:13:15;17.23;;;15.50;;
1691;SDS011;843;52.054;8.552;2023-05-21T19:15:44;17.70;;;15.20;;
1691;SDS011;843;52.054;8.552;2023-05-21T19:18:12;15.50;;;13.87;;
1691;SDS011;843;52.054;8.552;2023-05-21T19:20:38;16.30;;;14.20;;
1691;SDS011;843;52.054;8.552;2023-05-21T19:23:05;15.53;;;14.00;;
1691;SDS011;843;52.054;8.552;2023-05-21T19:25:31;19.20;;;14.23;;
1691;SDS011;843;52.054;8.552;2023-05-21T19:27:58;16.77;;;14.90;;
1691;SDS011;843;52.054;8.552;2023-05-21T19:30:26;17.10;;;15.47;;
1691;SDS011;843;52.054;8.552;2023-05-21T19:32:53;16.10;;;14.57;;
1691;SDS011;843;52.054;8.552;2023-05-21T19:35:19;15.67;;;14.10;;
1691;SDS011;843;52.054;8.552;2023-05-21T19:37:46;16.83;;;14.73;;
1691;SDS011;843;52.054;8.552;2023-05-21T19:40:12;18.67;;;15.13;;
1691;SDS011;843;52.054;8.552;2023-05-21T19:42:41;17.50;;;14.93;;
1691;SDS011;843;52.054;8.552;2023-05-21T19:45:08;17.77;;;15.87;;
1691;SDS011;843;52.054;8.552;2023-05-21T19:47:36;17.17;;;15.20;;
1691;SDS011;843;52.054;8.552;2023-05-21T19:50:05;18.23;;;16.23;;
1691;SDS011;843;52.054;8.552;2023-05-21T19:52:32;16.10;;;14.50;;
1691;SDS011;843;52.054;8.552;2023-05-21T19:54:58;18.27;;;16.57;;
1691;SDS011;843;52.054;8.552;2023-05-21T19:57:28;17.03;;;15.33;;
1691;SDS011;843;52.054;8.552;2023-05-21T19:59:55;17.73;;;15.70;;
1691;SDS011;843;52.054;8.552;2023-05-21T20:02:22;17.00;;;15.40;;
1691;SDS011;843;52.054;8.552;2023-05-21T20:04:50;17.00;;;15.23;;
1691;SDS011;843;52.054;8.552;2023-05-21T20:07:24;17.93;;;15.37;;
1691;SDS011;843;52.054;8.552;2023-05-21T20:09:50;19.03;;;17.03;;
1691;SDS011;843;52.054;8.552;2023-05-21T20:12:17;18.60;;;15.30;;
1691;SDS011;843;52.054;8.552;2023-05-21T20:14:43;18.67;;;16.47;;
1691;SDS011;843;52.054;8.552;2023-05-21T20:17:11;17.50;;;15.70;;
1691;SDS011;843;52.054;8.552;2023-05-21T20:19:38;18.67;;;16.80;;
1691;SDS011;843;52.054;8.552;2023-05-21T20:22:06;19.13;;;15.43;;
1691;SDS011;843;52.054;8.552;2023-05-21T20:24:32;18.67;;;16.80;;
1691;SDS011;843;52.054;8.552;2023-05-21T20:26:58;18.53;;;16.30;;
1691;SDS011;843;52.054;8.552;2023-05-21T20:29:26;16.97;;;15.33;;
1691;SDS011;843;52.054;8.552;2023-05-21T20:31:52;18.20;;;16.40;;
1691;SDS011;843;52.054;8.552;2023-05-21T20:34:19;17.30;;;15.60;;
1691;SDS011;843;52.054;8.552;2023-05-21T20:36:48;21.43;;;16.60;;
1691;SDS011;843;52.054;8.552;2023-05-21T20:39:15;16.57;;;14.97;;
1691;SDS011;843;52.054;8.552;2023-05-21T20:41:45;17.73;;;16.03;;
1691;SDS011;843;52.054;8.552;2023-05-21T20:44:12;17.40;;;15.50;;
1691;SDS011;843;52.054;8.552;2023-05-21T20:46:39;17.17;;;15.40;;
1691;SDS011;843;52.054;8.552;2023-05-21T20:49:05;18.33;;;16.53;;
1691;SDS011;843;52.054;8.552;2023-05-21T20:51:33;18.93;;;16.47;;
1691;SDS011;843;52.054;8.552;2023-05-21T20:54:00;18.00;;;16.13;;
1691;SDS011;843;52.054;8.552;2023-05-21T20:56:28;18.17;;;16.30;;
1691;SDS011;843;52.054;8.552;2023-05-21T20:58:55;17.23;;;15.53;;
1691;SDS011;843;52.054;8.552;2023-05-21T21:01:22;15.50;;;14.00;;
1691;SDS011;843;52.054;8.552;2023-05-21T21:03:48;17.70;;;15.30;;
1691;SDS011;843;52.054;8.552;2023-05-21T21:06:15;18.63;;;15.77;;
1691;SDS011;843;52.054;8.552;2023-05-21T21:08:42;16.83;;;15.13;;
1691;SDS011;843;52.054;8.552;2023-05-21T21:11:14;16.10;;;14.50;;
1691;SDS011;843;52.054;8.552;2023-05-21T21:13:42;17.67;;;15.77;;
1691;SDS011;843;52.054;8.552;2023-05-21T21:16:08;18.10;;;15.27;;
1691;SDS011;843;52.054;8.552;2023-05-21T21:18:35;16.40;;;14.70;;
1691;SDS011;843;52.054;8.552;2023-05-21T21:21:01;18.10;;;16.30;;
1691;SDS011;843;52.054;8.552;2023-05-21T21:23:28;18.97;;;17.17;;
1691;SDS011;843;52.054;8.552;2023-05-21T21:25:55;16.73;;;15.13;;
1691;SDS011;843;52.054;8.552;2023-05-21T21:28:21;18.40;;;16.63;;
1691;SDS011;843;52.054;8.552;2023-05-21T21:30:49;17.47;;;15.87;;
1691;SDS011;843;52.054;8.552;2023-05-21T21:33:15;18.00;;;16.27;;
1691;SDS011;843;52.054;8.552;2023-05-21T21:35:42;18.50;;;16.13;;
1691;SDS011;843;52.054;8.552;2023-05-21T21:38:08;18.20;;;15.70;;
1691;SDS011;843;52.054;8.552;2023-05-21T21:40:35;20.37;;;18.23;;
1691;SDS011;843;52.054;8.552;2023-05-21T21:43:01;18.00;;;16.30;;
1691;SDS011;843;52.054;8.552;2023-05-21T21:45:28;18.63;;;16.83;;
1691;SDS011;843;52.054;8.552;2023-05-21T21:47:55;18.60;;;16.80;;
1691;SDS011;843;52.054;8.552;2023-05-21T21:50:22;18.87;;;16.43;;
1691;SDS011;843;52.054;8.552;2023-05-21T21:52:48;18.43;;;16.40;;
1691;SDS011;843;52.054;8.552;2023-05-21T21:55:20;17.37;;;15.57;;
1691;SDS011;843;52.054;8.552;2023-05-21T21:57:46;18.10;;;16.23;;
1691;SDS011;843;52.054;8.552;2023-05-21T22:00:12;20.43;;;18.43;;
1691;SDS011;843;52.054;8.552;2023-05-21T22:02:42;19.70;;;17.70;;
1691;SDS011;843;52.054;8.552;2023-05-21T22:05:11;18.13;;;16.33;;
1691;SDS011;843;52.054;8.552;2023-05-21T22:07:39;17.97;;;16.17;;
1691;SDS011;843;52.054;8.552;2023-05-21T22:10:06;18.47;;;16.57;;
1691;SDS011;843;52.054;8.552;2023-05-21T22:12:32;17.57;;;15.33;;
1691;SDS011;843;52.054;8.552;2023-05-21T22:14:59;20.33;;;16.90;;
1691;SDS011;843;52.054;8.552;2023-05-21T22:17:29;19.73;;;17.63;;
1691;SDS011;843;52.054;8.552;2023-05-21T22:19:56;18.30;;;16.40;;
1691;SDS011;843;52.054;8.552;2023-05-21T22:22:24;20.57;;;17.00;;
1691;SDS011;843;52.054;8.552;2023-05-21T22:24:51;17.80;;;16.00;;
1691;SDS011;843;52.054;8.552;2023-05-21T22:27:17;19.67;;;16.90;;
1691;SDS011;843;52.054;8.552;2023-05-21T22:29:44;18.43;;;16.50;;
1691;SDS011;843;52.054;8.552;2023-05-21T22:32:10;22.60;;;18.13;;
1691;SDS011;843;52.054;8.552;2023-05-21T22:34:37;19.73;;;17.87;;
1691;SDS011;843;52.054;8.552;2023-05-21T22:37:03;21.60;;;17.87;;
1691;SDS011;843;52.054;8.552;2023-05-21T22:39:31;19.80;;;17.87;;
1691;SDS011;843;52.054;8.552;2023-05-21T22:41:58;20.00;;;18.00;;
1691;SDS011;843;52.054;8.552;2023-05-21T22:44:24;19.63;;;17.73;;
1691;SDS011;843;52.054;8.552;2023-05-21T22:46:51;18.50;;;16.70;;
1691;SDS011;843;52.054;8.552;2023-05-21T22:49:18;19.73;;;17.70;;
1691;SDS011;843;52.054;8.552;2023-05-21T22:51:44;19.27;;;17.47;;
1691;SDS011;843;52.054;8.552;2023-05-21T22:54:11;21.07;;;18.33;;
1691;SDS011;843;52.054;8.552;2023-05-21T22:56:39;19.17;;;17.40;;
1691;SDS011;843;52.054;8.552;2023-05-21T22:59:05;19.27;;;17.27;;
1691;SDS011;843;52.054;8.552;2023-05-21T23:01:31;19.50;;;17.20;;
1691;SDS011;843;52.054;8.552;2023-05-21T23:03:58;17.90;;;15.77;;
1691;SDS011;843;52.054;8.552;2023-05-21T23:06:24;18.20;;;16.30;;
1691;SDS011;843;52.054;8.552;2023-05-21T23:08:51;18.33;;;16.63;;
1691;SDS011;843;52.054;8.552;2023-05-21T23:11:17;20.53;;;16.57;;
1691;SDS011;843;52.054;8.552;2023-05-21T23:13:45;19.20;;;17.17;;
1691;SDS011;843;52.054;8.552;2023-05-21T23:16:11;16.47;;;14.87;;
1691;SDS011;843;52.054;8.552;2023-05-21T23:18:38;18.77;;;16.87;;
1691;SDS011;843;52.054;8.552;2023-05-21T23:21:05;17.33;;;15.60;;
1691;SDS011;843;52.054;8.552;2023-05-21T23:23:31;17.87;;;16.07;;
1691;SDS011;843;52.054;8.552;2023-05-21T23:25:58;19.30;;;17.40;;
1691;SDS011;843;52.054;8.552;2023-05-21T23:28:24;19.43;;;15.80;;
1691;SDS011;843;52.054;8.552;2023-05-21T23:30:52;17.27;;;15.43;;
1691;SDS011;843;52.054;8.552;2023-05-21T23:33:18;18.73;;;16.83;;
1691;SDS011;843;52.054;8.552;2023-05-21T23:35:45;19.97;;;17.93;;
1691;SDS011;843;52.054;8.552;2023-05-21T23:38:11;19.73;;;17.67;;
1691;SDS011;843;52.054;8.552;2023-05-21T23:40:38;19.13;;;17.10;;
1691;SDS011;843;52.054;8.552;2023-05-21T23:43:04;19.17;;;17.30;;
1691;SDS011;843;52.054;8.552;2023-05-21T23:45:31;19.83;;;17.87;;
1691;SDS011;843;52.054;8.552;2023-05-21T23:47:58;24.10;;;19.53;;
1691;SDS011;843;52.054;8.552;2023-05-21T23:50:25;26.60;;;19.67;;
1691;SDS011;843;52.054;8.552;2023-05-21T23:52:51;23.07;;;20.57;;
1691;SDS011;843;52.054;8.552;2023-05-21T23:55:18;24.63;;;20.70;;
1691;SDS011;843;52.054;8.552;2023-05-21T23:57:44;27.10;;;20.73;;
